createdAt,value
2018-08-10T06:31:18.181Z,1.70
2018-08-10T06:33:46.501Z,2.00
2018-08-10T06:36:14.693Z,2.17
2018-08-10T06:38:42.921Z,1.50
2018-08-10T06:41:11.500Z,1.73
2018-08-10T06:43:39.727Z,1.67
2018-08-10T06:46:07.936Z,1.90
2018-08-10T06:48:36.170Z,1.80
2018-08-10T06:51:04.414Z,1.50
2018-08-10T06:53:32.880Z,1.47
2018-08-10T06:56:01.136Z,1.60
2018-08-10T06:58:29.368Z,1.53
2018-08-10T07:00:57.585Z,1.40
2018-08-10T07:03:25.985Z,1.33
2018-08-10T07:05:54.196Z,1.40
2018-08-10T07:08:22.439Z,1.40
2018-08-10T07:10:50.659Z,1.60
2018-08-10T07:13:18.989Z,1.50
2018-08-10T07:15:47.136Z,1.67
2018-08-10T07:18:15.372Z,1.73
2018-08-10T07:20:43.588Z,1.50
2018-08-10T07:23:11.817Z,1.70
2018-08-10T07:25:40.028Z,1.60
2018-08-10T07:28:08.264Z,1.57
2018-08-10T07:30:36.475Z,1.83
2018-08-10T07:33:04.745Z,1.60
2018-08-10T07:35:32.958Z,1.57
2018-08-10T07:38:01.205Z,1.70
2018-08-10T07:40:29.408Z,1.60
2018-08-10T07:42:57.640Z,1.87
2018-08-10T07:45:25.862Z,1.73
2018-08-10T07:47:54.068Z,1.60
2018-08-10T07:50:22.291Z,1.60
2018-08-10T07:52:50.511Z,1.60
2018-08-10T07:55:18.740Z,2.33
2018-08-10T07:57:46.952Z,1.70
2018-08-10T08:00:15.181Z,2.03
2018-08-10T08:02:43.389Z,1.87
2018-08-10T08:05:11.616Z,2.00
2018-08-10T08:07:39.828Z,1.50
2018-08-10T08:10:08.089Z,1.50
2018-08-10T08:12:36.319Z,1.93
2018-08-10T08:15:04.896Z,1.60
2018-08-10T08:17:33.108Z,1.90
2018-08-10T08:20:08.359Z,1.67
2018-08-10T08:22:36.573Z,1.70
2018-08-10T08:25:05.385Z,2.43
2018-08-10T08:27:33.600Z,1.43
2018-08-10T08:30:01.825Z,1.33
2018-08-10T08:32:30.040Z,1.30
2018-08-10T08:34:58.418Z,1.07
2018-08-10T08:37:26.544Z,1.20
2018-08-10T08:40:06.161Z,1.50
2018-08-10T08:42:34.367Z,1.10
2018-08-10T08:46:24.517Z,0.93
2018-08-10T08:48:53.000Z,0.97
2018-08-10T08:51:25.605Z,0.87
2018-08-10T08:54:05.059Z,0.80
2018-08-10T08:56:41.252Z,0.90
2018-08-10T08:59:09.496Z,1.00
2018-08-10T09:01:37.741Z,1.00
2018-08-10T09:04:29.999Z,0.80
2018-08-10T09:06:58.225Z,1.03
2018-08-10T09:09:34.983Z,0.90
2018-08-10T09:12:03.218Z,0.73
2018-08-10T09:14:48.359Z,1.07
2018-08-10T09:17:16.665Z,0.80
2018-08-10T09:19:44.841Z,1.13
2018-08-10T09:22:13.484Z,1.03
2018-08-10T09:24:42.185Z,1.00
2018-08-10T09:27:10.416Z,0.83
2018-08-10T09:29:38.668Z,0.70
2018-08-10T09:32:06.907Z,1.00
2018-08-10T09:34:35.129Z,0.87
2018-08-10T09:37:03.664Z,1.10
2018-08-10T09:39:31.895Z,0.80
2018-08-10T09:42:01.387Z,1.03
2018-08-10T09:44:30.261Z,0.90
2018-08-10T09:46:58.505Z,0.87
2018-08-10T09:49:30.367Z,1.63
2018-08-10T09:51:58.596Z,0.80
2018-08-10T09:54:26.887Z,0.80
2018-08-10T09:56:58.508Z,0.80
2018-08-10T09:59:26.890Z,0.83
2018-08-10T10:02:00.576Z,0.80
2018-08-10T10:04:28.805Z,1.10
2018-08-10T10:06:57.016Z,0.73
2018-08-10T10:09:25.257Z,0.90
2018-08-10T10:11:53.479Z,0.90
2018-08-10T10:14:21.722Z,1.00
2018-08-10T10:16:49.932Z,0.80
2018-08-10T10:19:18.149Z,0.80
2018-08-10T10:21:46.360Z,1.00
2018-08-10T10:24:14.596Z,0.80
2018-08-10T10:26:42.807Z,0.70
2018-08-10T10:29:11.024Z,0.93
2018-08-10T10:31:39.243Z,1.00
2018-08-10T10:34:07.464Z,0.80
2018-08-10T10:36:35.689Z,0.80
2018-08-10T10:39:06.205Z,0.70
2018-08-10T10:41:34.473Z,1.00
2018-08-10T10:44:02.668Z,0.90
2018-08-10T10:46:30.879Z,0.90
2018-08-10T10:48:59.104Z,1.17
2018-08-10T10:51:27.330Z,0.70
2018-08-10T10:53:55.555Z,0.80
2018-08-10T10:56:23.775Z,1.10
2018-08-10T10:58:52.020Z,1.07
2018-08-10T11:01:20.223Z,1.10
2018-08-10T11:03:48.439Z,0.90
2018-08-10T11:06:16.650Z,0.93
2018-08-10T11:08:44.892Z,0.90
2018-08-10T11:11:13.104Z,1.03
2018-08-10T11:13:41.392Z,1.03
2018-08-10T11:16:09.596Z,1.07
2018-08-10T11:18:37.828Z,1.00
2018-08-10T11:21:06.040Z,0.97
2018-08-10T11:23:34.248Z,1.07
2018-08-10T11:26:02.489Z,0.80
2018-08-10T11:28:30.700Z,0.70
2018-08-10T11:30:58.912Z,1.00
2018-08-10T11:33:27.141Z,1.40
2018-08-10T11:35:55.353Z,0.90
2018-08-10T11:38:23.601Z,0.90
2018-08-10T11:40:51.809Z,1.00
2018-08-10T11:43:20.015Z,1.13
2018-08-10T11:45:48.243Z,1.10
2018-08-10T11:48:16.457Z,1.00
2018-08-10T11:50:44.691Z,0.90
2018-08-10T11:53:12.891Z,1.13
2018-08-10T11:55:41.124Z,0.90
2018-08-10T11:58:09.335Z,0.80
2018-08-10T12:00:37.564Z,0.80
2018-08-10T12:03:05.951Z,0.90
2018-08-10T12:05:34.188Z,1.10
2018-08-10T12:08:02.404Z,1.13
2018-08-10T12:10:30.637Z,1.33
2018-08-10T12:12:58.894Z,1.20
2018-08-10T12:15:27.122Z,1.10
2018-08-10T12:17:55.327Z,0.97
2018-08-10T12:20:23.548Z,1.23
2018-08-10T12:22:51.770Z,1.03
2018-08-10T12:25:19.992Z,1.10
2018-08-10T12:27:48.199Z,1.10
2018-08-10T12:30:16.498Z,1.23
2018-08-10T12:32:44.676Z,1.47
2018-08-10T12:35:12.908Z,1.07
2018-08-10T12:37:41.131Z,1.03
2018-08-10T12:40:09.403Z,1.10
2018-08-10T12:42:37.907Z,1.20
2018-08-10T12:45:06.138Z,1.00
2018-08-10T12:47:34.344Z,1.13
2018-08-10T12:50:02.584Z,1.07
2018-08-10T12:52:30.800Z,1.27
2018-08-10T12:54:59.080Z,1.10
2018-08-10T12:57:27.288Z,1.00
2018-08-10T12:59:55.544Z,0.90
2018-08-10T13:02:23.768Z,1.30
2018-08-10T13:04:52.007Z,1.20
2018-08-10T13:07:20.214Z,1.10
2018-08-10T13:09:48.575Z,1.20
2018-08-10T13:12:16.771Z,1.00
2018-08-10T13:14:45.011Z,1.03
2018-08-10T13:17:13.225Z,1.23
2018-08-10T13:19:41.463Z,1.30
2018-08-10T13:22:09.673Z,1.10
2018-08-10T13:24:37.899Z,1.10
2018-08-10T13:27:06.141Z,1.10
2018-08-10T13:29:34.372Z,1.10
2018-08-10T13:32:02.575Z,1.37
2018-08-10T13:34:30.775Z,1.30
2018-08-10T13:36:58.997Z,1.10
2018-08-10T13:39:27.212Z,1.10
2018-08-10T13:41:55.436Z,1.23
2018-08-10T13:44:23.651Z,1.77
2018-08-10T13:46:51.887Z,1.10
2018-08-10T13:49:20.103Z,1.13
2018-08-10T13:51:48.341Z,1.10
2018-08-10T13:54:16.547Z,1.00
2018-08-10T13:56:44.775Z,1.10
2018-08-10T13:59:12.992Z,1.00
2018-08-10T14:01:41.217Z,0.90
2018-08-10T14:04:09.444Z,1.07
2018-08-10T14:06:37.784Z,1.23
2018-08-10T14:09:08.716Z,1.40
2018-08-10T14:11:36.954Z,1.40
2018-08-10T14:14:05.183Z,1.23
2018-08-10T14:16:33.407Z,1.30
2018-08-10T14:19:01.620Z,1.30
2018-08-10T14:21:29.855Z,1.53
2018-08-10T14:23:58.055Z,1.50
2018-08-10T14:26:26.301Z,1.23
2018-08-10T14:28:54.531Z,1.17
2018-08-10T14:31:22.760Z,1.00
2018-08-10T14:33:50.972Z,1.10
2018-08-10T14:36:19.193Z,1.30
2018-08-10T14:38:47.404Z,1.30
2018-08-10T14:41:15.619Z,1.20
2018-08-10T14:43:43.839Z,1.20
2018-08-10T14:46:12.071Z,1.17
2018-08-10T14:48:40.283Z,1.20
2018-08-10T14:51:08.525Z,1.50
2018-08-10T14:53:36.797Z,1.33
2018-08-10T14:56:05.024Z,1.70
2018-08-10T14:58:33.239Z,1.30
2018-08-10T15:01:01.460Z,1.40
2018-08-10T15:03:36.564Z,1.30
2018-08-10T15:06:04.791Z,1.17
2018-08-10T15:08:33.025Z,1.00
2018-08-10T15:11:01.305Z,1.40
2018-08-10T15:13:29.524Z,1.00
2018-08-10T15:15:57.756Z,1.07
2018-08-10T15:18:25.964Z,1.17
2018-08-10T15:20:54.184Z,1.50
2018-08-10T15:23:22.391Z,1.47
2018-08-10T15:25:50.639Z,1.23
2018-08-10T15:28:18.847Z,1.00
2018-08-10T15:31:15.757Z,1.20
2018-08-10T15:33:43.955Z,1.20
2018-08-10T15:36:12.184Z,1.00
2018-08-10T15:38:40.396Z,1.20
2018-08-10T15:41:08.627Z,1.30
2018-08-10T15:43:36.868Z,1.63
2018-08-10T15:46:05.167Z,2.60
2018-08-10T15:48:33.390Z,3.20
2018-08-10T15:51:01.598Z,2.43
2018-08-10T15:53:29.819Z,1.20
2018-08-10T15:55:58.075Z,1.40
2018-08-10T15:58:26.288Z,1.60
2018-08-10T16:00:54.508Z,1.20
2018-08-10T16:03:22.738Z,1.10
2018-08-10T16:05:50.961Z,1.70
2018-08-10T16:08:19.179Z,2.13
2018-08-10T16:10:47.396Z,3.23
2018-08-10T16:13:15.647Z,1.87
2018-08-10T16:15:43.856Z,1.43
2018-08-10T16:18:12.076Z,2.33
2018-08-10T16:20:40.288Z,1.50
2018-08-10T16:23:08.536Z,8.80
2018-08-10T16:25:36.779Z,2.33
2018-08-10T16:28:05.008Z,2.67
2018-08-10T16:30:33.243Z,1.60
2018-08-10T16:33:01.472Z,2.10
2018-08-10T16:35:29.680Z,5.70
2018-08-10T16:37:57.919Z,6.77
2018-08-10T16:40:26.132Z,2.90
2018-08-10T16:42:54.348Z,3.10
2018-08-10T16:45:22.555Z,1.33
2018-08-10T16:47:50.800Z,1.20
2018-08-10T16:50:19.578Z,1.17
2018-08-10T16:52:47.868Z,1.40
2018-08-10T16:55:17.439Z,7.60
2018-08-10T16:57:52.992Z,3.10
2018-08-10T17:00:21.915Z,3.13
2018-08-10T17:02:50.216Z,3.17
2018-08-10T17:05:18.462Z,4.40
2018-08-10T17:07:46.707Z,5.00
2018-08-10T17:10:14.912Z,4.33
2018-08-10T17:12:44.910Z,2.87
2018-08-10T17:15:14.599Z,2.03
2018-08-10T17:17:43.892Z,5.60
2018-08-10T17:20:12.326Z,2.77
2018-08-10T17:22:40.997Z,1.87
2018-08-10T17:25:10.363Z,1.67
2018-08-10T17:27:38.660Z,1.20
2018-08-10T17:30:09.258Z,1.80
2018-08-10T17:32:37.804Z,2.00
2018-08-10T17:35:07.128Z,1.57
2018-08-10T17:37:35.355Z,1.60
2018-08-10T17:40:03.989Z,1.40
2018-08-10T17:42:32.223Z,1.73
2018-08-10T17:45:00.456Z,2.07
2018-08-10T17:47:28.683Z,1.63
2018-08-10T17:49:56.888Z,1.53
2018-08-10T17:52:25.111Z,1.43
2018-08-10T17:54:53.324Z,1.60
2018-08-10T17:57:21.556Z,1.43
2018-08-10T17:59:49.936Z,1.07
2018-08-10T18:02:18.153Z,1.23
2018-08-10T18:04:46.459Z,1.60
2018-08-10T18:07:14.664Z,1.23
2018-08-10T18:09:42.896Z,1.40
2018-08-10T18:12:11.113Z,1.33
2018-08-10T18:14:39.363Z,1.40
2018-08-10T18:17:07.576Z,1.43
2018-08-10T18:19:35.796Z,1.60
2018-08-10T18:22:04.003Z,1.47
2018-08-10T18:24:32.223Z,1.60
2018-08-10T18:27:00.436Z,1.50
2018-08-10T18:29:28.669Z,1.60
2018-08-10T18:31:56.872Z,1.50
2018-08-10T18:34:25.100Z,1.60
2018-08-10T18:36:53.311Z,1.60
2018-08-10T18:39:21.532Z,1.83
2018-08-10T18:41:49.744Z,2.10
2018-08-10T18:44:17.988Z,1.50
2018-08-10T18:46:46.199Z,1.73
2018-08-10T18:49:14.433Z,2.17
2018-08-10T18:51:42.644Z,1.90
2018-08-10T18:54:10.885Z,1.80
2018-08-10T18:56:39.096Z,1.93
2018-08-10T18:59:07.340Z,1.70
2018-08-10T19:01:35.557Z,2.10
2018-08-10T19:04:03.800Z,1.80
2018-08-10T19:06:32.006Z,1.90
2018-08-10T19:09:00.231Z,1.80
2018-08-10T19:11:28.444Z,2.40
2018-08-10T19:13:56.691Z,2.40
2018-08-10T19:16:25.020Z,4.00
2018-08-10T19:18:53.300Z,3.17
2018-08-10T19:21:21.528Z,2.83
2018-08-10T19:23:49.756Z,2.97
2018-08-10T19:26:18.022Z,2.60
2018-08-10T19:28:46.256Z,3.07
2018-08-10T19:31:14.473Z,2.50
2018-08-10T19:33:42.700Z,2.37
2018-08-10T19:36:10.908Z,2.70
2018-08-10T19:38:39.147Z,3.20
2018-08-10T19:41:07.369Z,3.93
2018-08-10T19:43:35.596Z,3.57
2018-08-10T19:46:03.803Z,3.63
2018-08-10T19:48:32.097Z,4.63
2018-08-10T19:51:00.272Z,4.30
2018-08-10T19:53:28.471Z,4.50
2018-08-10T19:55:56.747Z,3.70
2018-08-10T19:58:25.323Z,4.50
2018-08-10T20:00:53.547Z,3.83
2018-08-10T20:03:21.748Z,4.10
2018-08-10T20:05:49.989Z,4.13
2018-08-10T20:08:18.249Z,3.70
2018-08-10T20:10:46.459Z,3.80
